sensor_id;sensor_type;location;lat;lon;timestamp;pressure;altitude;pressure_sealevel;temperature;humidity
16255;BME280;8235;52.198;9.904;2023-04-06T00:00:13;101229.19;;;1.19;65.52
16255;BME280;8235;52.198;9.904;2023-04-06T00:02:41;101240.56;;;1.18;65.42
16255;BME280;8235;52.198;9.904;2023-04-06T00:05:09;101231.00;;;1.14;65.33
16255;BME280;8235;52.198;9.904;2023-04-06T00:07:35;101232.78;;;1.12;65.41
16255;BME280;8235;52.198;9.904;2023-04-06T00:10:03;101227.56;;;1.09;65.61
16255;BME280;8235;52.198;9.904;2023-04-06T00:12:30;101228.53;;;1.07;65.99
16255;BME280;8235;52.198;9.904;2023-04-06T00:14:56;101221.53;;;1.06;65.67
16255;BME280;8235;52.198;9.904;2023-04-06T00:17:23;101225.09;;;1.01;66.30
16255;BME280;8235;52.198;9.904;2023-04-06T00:19:49;101219.88;;;0.98;66.30
16255;BME280;8235;52.198;9.904;2023-04-06T00:22:17;101224.25;;;0.98;66.14
16255;BME280;8235;52.198;9.904;2023-04-06T00:24:44;101211.19;;;0.95;66.15
16255;BME280;8235;52.198;9.904;2023-04-06T00:27:11;101218.22;;;0.91;65.96
16255;BME280;8235;52.198;9.904;2023-04-06T00:29:39;101216.59;;;0.86;66.41
16255;BME280;8235;52.198;9.904;2023-04-06T00:32:06;101214.88;;;0.83;66.30
16255;BME280;8235;52.198;9.904;2023-04-06T00:34:32;101208.84;;;0.77;66.38
16255;BME280;8235;52.198;9.904;2023-04-06T00:36:59;101211.50;;;0.72;66.62
16255;BME280;8235;52.198;9.904;2023-04-06T00:39:26;101202.84;;;0.68;67.08
16255;BME280;8235;52.198;9.904;2023-04-06T00:41:53;101209.88;;;0.65;67.43
16255;BME280;8235;52.198;9.904;2023-04-06T00:44:20;101208.16;;;0.62;67.34
16255;BME280;8235;52.198;9.904;2023-04-06T00:46:47;101202.97;;;0.58;67.48
16255;BME280;8235;52.198;9.904;2023-04-06T00:49:14;101204.75;;;0.56;67.56
16255;BME280;8235;52.198;9.904;2023-04-06T00:51:40;101201.34;;;0.52;68.05
16255;BME280;8235;52.198;9.904;2023-04-06T00:54:07;101191.75;;;0.50;68.14
16255;BME280;8235;52.198;9.904;2023-04-06T00:56:35;101197.00;;;0.48;68.28
16255;BME280;8235;52.198;9.904;2023-04-06T00:59:02;101201.38;;;0.48;68.68
16255;BME280;8235;52.198;9.904;2023-04-06T01:01:28;101196.19;;;0.45;68.57
16255;BME280;8235;52.198;9.904;2023-04-06T01:03:57;101193.56;;;0.43;68.67
16255;BME280;8235;52.198;9.904;2023-04-06T01:06:24;101195.34;;;0.41;68.72
16255;BME280;8235;52.198;9.904;2023-04-06T01:08:50;101186.63;;;0.39;68.82
16255;BME280;8235;52.198;9.904;2023-04-06T01:11:17;101189.28;;;0.36;68.85
16255;BME280;8235;52.198;9.904;2023-04-06T01:13:45;101183.22;;;0.34;68.83
16255;BME280;8235;52.198;9.904;2023-04-06T01:16:12;101179.78;;;0.30;68.88
16255;BME280;8235;52.198;9.904;2023-04-06T01:18:39;101178.94;;;0.27;68.93
16255;BME280;8235;52.198;9.904;2023-04-06T01:21:05;101179.84;;;0.26;69.04
16255;BME280;8235;52.198;9.904;2023-04-06T01:23:35;101172.00;;;0.23;69.05
16255;BME280;8235;52.198;9.904;2023-04-06T01:26:01;101176.41;;;0.19;69.73
16255;BME280;8235;52.198;9.904;2023-04-06T01:28:28;101183.41;;;0.19;69.31
16255;BME280;8235;52.198;9.904;2023-04-06T01:30:54;101178.22;;;0.16;69.55
16255;BME280;8235;52.198;9.904;2023-04-06T01:33:21;101173.03;;;0.13;69.62
16255;BME280;8235;52.198;9.904;2023-04-06T01:35:48;101173.06;;;0.10;69.86
16255;BME280;8235;52.198;9.904;2023-04-06T01:38:14;101176.56;;;0.09;69.67
16255;BME280;8235;52.198;9.904;2023-04-06T01:40:42;101172.22;;;0.06;69.83
16255;BME280;8235;52.198;9.904;2023-04-06T01:43:09;101171.38;;;0.04;70.25
16255;BME280;8235;52.198;9.904;2023-04-06T01:45:35;101172.25;;;0.02;70.06
16255;BME280;8235;52.198;9.904;2023-04-06T01:48:02;101169.72;;;-0.02;70.45
16255;BME280;8235;52.198;9.904;2023-04-06T01:50:28;101169.72;;;-0.03;70.49
16255;BME280;8235;52.198;9.904;2023-04-06T01:52:55;101165.38;;;-0.06;70.52
16255;BME280;8235;52.198;9.904;2023-04-06T01:55:22;101169.78;;;-0.08;70.54
16255;BME280;8235;52.198;9.904;2023-04-06T01:57:50;101175.03;;;-0.11;70.52
16255;BME280;8235;52.198;9.904;2023-04-06T02:00:16;101178.56;;;-0.13;70.81
16255;BME280;8235;52.198;9.904;2023-04-06T02:02:43;101182.94;;;-0.17;71.05
16255;BME280;8235;52.198;9.904;2023-04-06T02:05:10;101171.66;;;-0.19;71.09
16255;BME280;8235;52.198;9.904;2023-04-06T02:07:37;101169.06;;;-0.22;71.10
16255;BME280;8235;52.198;9.904;2023-04-06T02:10:04;101169.94;;;-0.23;71.32
16255;BME280;8235;52.198;9.904;2023-04-06T02:12:37;101166.50;;;-0.26;71.26
16255;BME280;8235;52.198;9.904;2023-04-06T02:15:05;101167.38;;;-0.29;71.54
16255;BME280;8235;52.198;9.904;2023-04-06T02:17:32;101165.66;;;-0.31;71.64
16255;BME280;8235;52.198;9.904;2023-04-06T02:19:59;101170.03;;;-0.33;71.65
16255;BME280;8235;52.198;9.904;2023-04-06T02:22:25;101168.34;;;-0.36;71.95
16255;BME280;8235;52.198;9.904;2023-04-06T02:24:52;101176.22;;;-0.38;71.82
16255;BME280;8235;52.198;9.904;2023-04-06T02:27:18;101164.03;;;-0.40;72.46
16255;BME280;8235;52.198;9.904;2023-04-06T02:29:45;101168.41;;;-0.42;72.09
16255;BME280;8235;52.198;9.904;2023-04-06T02:32:12;101164.06;;;-0.45;72.30
16255;BME280;8235;52.198;9.904;2023-04-06T02:34:39;101163.22;;;-0.47;72.26
16255;BME280;8235;52.198;9.904;2023-04-06T02:37:06;101152.75;;;-0.48;72.64
16255;BME280;8235;52.198;9.904;2023-04-06T02:39:32;101166.72;;;-0.49;72.86
16255;BME280;8235;52.198;9.904;2023-04-06T02:41:59;101162.38;;;-0.52;72.50
16255;BME280;8235;52.198;9.904;2023-04-06T02:44:25;101156.34;;;-0.55;72.69
16255;BME280;8235;52.198;9.904;2023-04-06T02:46:52;101162.47;;;-0.58;72.69
16255;BME280;8235;52.198;9.904;2023-04-06T02:49:20;101150.28;;;-0.60;72.97
16255;BME280;8235;52.198;9.904;2023-04-06T02:51:46;101158.13;;;-0.63;72.66
16255;BME280;8235;52.198;9.904;2023-04-06T02:54:13;101153.78;;;-0.64;73.11
16255;BME280;8235;52.198;9.904;2023-04-06T02:56:39;101152.94;;;-0.66;72.81
16255;BME280;8235;52.198;9.904;2023-04-06T02:59:06;101151.22;;;-0.71;73.37
16255;BME280;8235;52.198;9.904;2023-04-06T03:01:32;101151.28;;;-0.74;72.86
16255;BME280;8235;52.198;9.904;2023-04-06T03:03:59;101146.06;;;-0.77;73.30
16255;BME280;8235;52.198;9.904;2023-04-06T03:06:27;101150.47;;;-0.82;73.46
16255;BME280;8235;52.198;9.904;2023-04-06T03:08:54;101152.28;;;-0.90;73.15
16255;BME280;8235;52.198;9.904;2023-04-06T03:11:20;101150.59;;;-0.95;73.67
16255;BME280;8235;52.198;9.904;2023-04-06T03:13:47;101149.75;;;-0.99;73.55
16255;BME280;8235;52.198;9.904;2023-04-06T03:16:13;101145.41;;;-1.03;73.74
16255;BME280;8235;52.198;9.904;2023-04-06T03:18:40;101134.97;;;-1.05;74.26
16255;BME280;8235;52.198;9.904;2023-04-06T03:21:06;101148.91;;;-1.06;74.67
16255;BME280;8235;52.198;9.904;2023-04-06T03:23:34;101149.84;;;-1.08;74.91
16255;BME280;8235;52.198;9.904;2023-04-06T03:26:01;101146.34;;;-1.09;75.20
16255;BME280;8235;52.198;9.904;2023-04-06T03:28:28;101142.88;;;-1.09;75.31
16255;BME280;8235;52.198;9.904;2023-04-06T03:30:54;101149.84;;;-1.10;75.18
16255;BME280;8235;52.198;9.904;2023-04-06T03:33:21;101146.34;;;-1.10;75.85
16255;BME280;8235;52.198;9.904;2023-04-06T03:35:47;101140.25;;;-1.11;75.47
16255;BME280;8235;52.198;9.904;2023-04-06T03:38:14;101142.03;;;-1.13;75.89
16255;BME280;8235;52.198;9.904;2023-04-06T03:40:42;101146.38;;;-1.15;76.22
16255;BME280;8235;52.198;9.904;2023-04-06T03:43:08;101150.75;;;-1.18;76.27
16255;BME280;8235;52.198;9.904;2023-04-06T03:45:35;101141.19;;;-1.21;76.39
16255;BME280;8235;52.198;9.904;2023-04-06T03:48:01;101143.81;;;-1.24;76.31
16255;BME280;8235;52.198;9.904;2023-04-06T03:50:28;101149.97;;;-1.26;76.77
16255;BME280;8235;52.198;9.904;2023-04-06T03:52:55;101144.75;;;-1.28;76.64
16255;BME280;8235;52.198;9.904;2023-04-06T03:55:21;101147.38;;;-1.29;76.96
16255;BME280;8235;52.198;9.904;2023-04-06T03:57:49;101144.75;;;-1.31;76.74
16255;BME280;8235;52.198;9.904;2023-04-06T04:00:16;101141.28;;;-1.31;77.15
16255;BME280;8235;52.198;9.904;2023-04-06T04:02:42;101146.50;;;-1.31;77.04
16255;BME280;8235;52.198;9.904;2023-04-06T04:05:09;101147.41;;;-1.34;77.30
16255;BME280;8235;52.198;9.904;2023-04-06T04:07:36;101141.31;;;-1.34;77.61
16255;BME280;8235;52.198;9.904;2023-04-06T04:10:03;101154.38;;;-1.36;77.44
16255;BME280;8235;52.198;9.904;2023-04-06T04:12:29;101149.16;;;-1.37;77.63
16255;BME280;8235;52.198;9.904;2023-04-06T04:14:57;101154.38;;;-1.39;77.69
16255;BME280;8235;52.198;9.904;2023-04-06T04:17:24;101157.00;;;-1.41;77.70
16255;BME280;8235;52.198;9.904;2023-04-06T04:19:51;101150.91;;;-1.43;77.56
16255;BME280;8235;52.198;9.904;2023-04-06T04:22:17;101157.88;;;-1.43;77.69
16255;BME280;8235;52.198;9.904;2023-04-06T04:24:44;101154.44;;;-1.44;77.88
16255;BME280;8235;52.198;9.904;2023-04-06T04:27:10;101154.44;;;-1.45;78.18
16255;BME280;8235;52.198;9.904;2023-04-06T04:29:37;101152.72;;;-1.46;78.20
16255;BME280;8235;52.198;9.904;2023-04-06T04:32:05;101152.72;;;-1.46;78.18
16255;BME280;8235;52.198;9.904;2023-04-06T04:34:31;101148.38;;;-1.49;78.15
16255;BME280;8235;52.198;9.904;2023-04-06T04:36:58;101151.84;;;-1.50;78.33
16255;BME280;8235;52.198;9.904;2023-04-06T04:39:24;101150.13;;;-1.51;78.58
16255;BME280;8235;52.198;9.904;2023-04-06T04:41:51;101149.25;;;-1.51;78.56
16255;BME280;8235;52.198;9.904;2023-04-06T04:44:18;101151.88;;;-1.53;78.36
16255;BME280;8235;52.198;9.904;2023-04-06T04:46:45;101157.09;;;-1.54;78.87
16255;BME280;8235;52.198;9.904;2023-04-06T04:49:13;101152.75;;;-1.55;78.81
16255;BME280;8235;52.198;9.904;2023-04-06T04:51:40;101157.09;;;-1.56;79.05
16255;BME280;8235;52.198;9.904;2023-04-06T04:54:06;101153.63;;;-1.58;78.80
16255;BME280;8235;52.198;9.904;2023-04-06T04:56:33;101150.19;;;-1.61;78.82
16255;BME280;8235;52.198;9.904;2023-04-06T04:58:59;101165.88;;;-1.66;78.71
16255;BME280;8235;52.198;9.904;2023-04-06T05:01:26;101163.28;;;-1.70;78.53
16255;BME280;8235;52.198;9.904;2023-04-06T05:03:52;101149.38;;;-1.74;79.40
16255;BME280;8235;52.198;9.904;2023-04-06T05:06:20;101157.22;;;-1.74;79.14
16255;BME280;8235;52.198;9.904;2023-04-06T05:08:47;101149.38;;;-1.76;79.41
16255;BME280;8235;52.198;9.904;2023-04-06T05:11:13;101151.13;;;-1.75;79.90
16255;BME280;8235;52.198;9.904;2023-04-06T05:13:40;101155.47;;;-1.75;80.00
16255;BME280;8235;52.198;9.904;2023-04-06T05:16:06;101146.75;;;-1.74;80.37
16255;BME280;8235;52.198;9.904;2023-04-06T05:18:33;101154.59;;;-1.72;80.58
16255;BME280;8235;52.198;9.904;2023-04-06T05:21:00;101149.34;;;-1.69;80.69
16255;BME280;8235;52.198;9.904;2023-04-06T05:23:28;101152.81;;;-1.66;81.07
16255;BME280;8235;52.198;9.904;2023-04-06T05:25:55;101151.06;;;-1.64;81.25
16255;BME280;8235;52.198;9.904;2023-04-06T05:28:21;101151.94;;;-1.62;81.42
16255;BME280;8235;52.198;9.904;2023-04-06T05:30:48;101153.63;;;-1.58;81.25
16255;BME280;8235;52.198;9.904;2023-04-06T05:33:15;101155.34;;;-1.54;81.56
16255;BME280;8235;52.198;9.904;2023-04-06T05:35:41;101154.47;;;-1.48;81.81
16255;BME280;8235;52.198;9.904;2023-04-06T05:38:08;101154.41;;;-1.42;82.55
16255;BME280;8235;52.198;9.904;2023-04-06T05:40:37;101152.63;;;-1.35;82.58
16255;BME280;8235;52.198;9.904;2023-04-06T05:43:06;101155.19;;;-1.26;82.81
16255;BME280;8235;52.198;9.904;2023-04-06T05:45:32;101154.25;;;-1.18;83.05
16255;BME280;8235;52.198;9.904;2023-04-06T05:48:00;101153.34;;;-1.11;83.31
16255;BME280;8235;52.198;9.904;2023-04-06T05:50:26;101142.78;;;-1.03;83.30
16255;BME280;8235;52.198;9.904;2023-04-06T05:52:53;101150.56;;;-0.92;83.58
16255;BME280;8235;52.198;9.904;2023-04-06T05:55:20;101153.97;;;-0.83;83.28
16255;BME280;8235;52.198;9.904;2023-04-06T05:57:47;101151.28;;;-0.74;83.73
16255;BME280;8235;52.198;9.904;2023-04-06T06:00:14;101149.41;;;-0.62;83.64
16255;BME280;8235;52.198;9.904;2023-04-06T06:02:41;101149.28;;;-0.50;84.08
16255;BME280;8235;52.198;9.904;2023-04-06T06:05:08;101153.47;;;-0.36;84.35
16255;BME280;8235;52.198;9.904;2023-04-06T06:07:35;101144.59;;;-0.19;84.53
16255;BME280;8235;52.198;9.904;2023-04-06T06:10:02;101147.06;;;-0.06;83.83
16255;BME280;8235;52.198;9.904;2023-04-06T06:12:28;101137.31;;;0.06;83.47
16255;BME280;8235;52.198;9.904;2023-04-06T06:14:57;101138.00;;;0.20;83.44
16255;BME280;8235;52.198;9.904;2023-04-06T06:17:23;101132.59;;;0.32;82.89
16255;BME280;8235;52.198;9.904;2023-04-06T06:19:50;101135.03;;;0.44;82.59
16255;BME280;8235;52.198;9.904;2023-04-06T06:22:16;101137.47;;;0.56;82.21
16255;BME280;8235;52.198;9.904;2023-04-06T06:24:43;101133.81;;;0.69;81.79
16255;BME280;8235;52.198;9.904;2023-04-06T06:27:10;101136.19;;;0.85;81.62
16255;BME280;8235;52.198;9.904;2023-04-06T06:29:36;101135.94;;;1.00;81.62
16255;BME280;8235;52.198;9.904;2023-04-06T06:32:04;101145.28;;;1.16;81.49
16255;BME280;8235;52.198;9.904;2023-04-06T06:34:31;101138.88;;;1.32;81.42
16255;BME280;8235;52.198;9.904;2023-04-06T06:36:58;101140.34;;;1.47;80.70
16255;BME280;8235;52.198;9.904;2023-04-06T06:39:24;101143.56;;;1.61;80.24
16255;BME280;8235;52.198;9.904;2023-04-06T06:41:51;101143.28;;;1.78;79.64
16255;BME280;8235;52.198;9.904;2023-04-06T06:44:19;101134.19;;;1.94;78.86
16255;BME280;8235;52.198;9.904;2023-04-06T06:46:46;101139.09;;;2.13;77.64
16255;BME280;8235;52.198;9.904;2023-04-06T06:49:14;101143.94;;;2.31;76.57
16255;BME280;8235;52.198;9.904;2023-04-06T06:51:41;101148.81;;;2.49;75.79
16255;BME280;8235;52.198;9.904;2023-04-06T06:54:07;101137.00;;;2.67;75.12
16255;BME280;8235;52.198;9.904;2023-04-06T06:56:34;101138.31;;;2.86;73.60
16255;BME280;8235;52.198;9.904;2023-04-06T06:59:03;101148.41;;;3.03;71.96
16255;BME280;8235;52.198;9.904;2023-04-06T07:01:31;101137.50;;;3.18;70.18
16255;BME280;8235;52.198;9.904;2023-04-06T07:03:58;101137.84;;;3.38;68.77
16255;BME280;8235;52.198;9.904;2023-04-06T07:06:26;101140.09;;;3.54;67.74
16255;BME280;8235;52.198;9.904;2023-04-06T07:08:52;101130.84;;;3.70;66.16
16255;BME280;8235;52.198;9.904;2023-04-06T07:11:19;101133.03;;;3.87;65.28
16255;BME280;8235;52.198;9.904;2023-04-06T07:13:46;101127.31;;;4.02;63.85
16255;BME280;8235;52.198;9.904;2023-04-06T07:16:12;101121.56;;;4.18;63.03
16255;BME280;8235;52.198;9.904;2023-04-06T07:18:39;101121.91;;;4.36;61.93
16255;BME280;8235;52.198;9.904;2023-04-06T07:21:05;101123.13;;;4.53;60.48
16255;BME280;8235;52.198;9.904;2023-04-06T07:23:34;101127.78;;;4.73;59.97
16255;BME280;8235;52.198;9.904;2023-04-06T07:26:00;101126.38;;;4.89;58.82
16255;BME280;8235;52.198;9.904;2023-04-06T07:28:27;101124.00;;;5.08;57.92
16255;BME280;8235;52.198;9.904;2023-04-06T07:30:53;101127.84;;;5.24;56.81
16255;BME280;8235;52.198;9.904;2023-04-06T07:33:20;101121.97;;;5.41;55.50
16255;BME280;8235;52.198;9.904;2023-04-06T07:35:47;101119.63;;;5.58;55.26
16255;BME280;8235;52.198;9.904;2023-04-06T07:38:13;101118.97;;;5.77;54.27
16255;BME280;8235;52.198;9.904;2023-04-06T07:40:41;101121.88;;;5.94;52.91
16255;BME280;8235;52.198;9.904;2023-04-06T07:43:08;101126.50;;;6.12;53.01
16255;BME280;8235;52.198;9.904;2023-04-06T07:45:35;101123.16;;;6.31;52.74
16255;BME280;8235;52.198;9.904;2023-04-06T07:48:01;101117.25;;;6.46;51.10
16255;BME280;8235;52.198;9.904;2023-04-06T07:50:28;101124.47;;;6.64;50.76
16255;BME280;8235;52.198;9.904;2023-04-06T07:52:54;101115.09;;;6.79;49.86
16255;BME280;8235;52.198;9.904;2023-04-06T07:55:21;101120.75;;;6.91;49.19
16255;BME280;8235;52.198;9.904;2023-04-06T07:57:49;101117.53;;;7.05;48.22
16255;BME280;8235;52.198;9.904;2023-04-06T08:00:16;101110.78;;;7.18;47.54
16255;BME280;8235;52.198;9.904;2023-04-06T08:02:43;101114.66;;;7.31;47.24
16255;BME280;8235;52.198;9.904;2023-04-06T08:05:09;101108.75;;;7.45;48.14
16255;BME280;8235;52.198;9.904;2023-04-06T08:07:36;101094.97;;;7.57;47.40
16255;BME280;8235;52.198;9.904;2023-04-06T08:10:03;101110.06;;;7.76;47.26
16255;BME280;8235;52.198;9.904;2023-04-06T08:12:32;101103.38;;;7.87;45.75
16255;BME280;8235;52.198;9.904;2023-04-06T08:15:00;101105.47;;;7.99;46.44
16255;BME280;8235;52.198;9.904;2023-04-06T08:17:28;101102.97;;;8.15;45.99
16255;BME280;8235;52.198;9.904;2023-04-06T08:19:56;101101.38;;;8.30;45.39
16255;BME280;8235;52.198;9.904;2023-04-06T08:22:22;101101.78;;;8.41;44.24
16255;BME280;8235;52.198;9.904;2023-04-06T08:24:50;101091.59;;;8.51;44.99
16255;BME280;8235;52.198;9.904;2023-04-06T08:27:16;101091.78;;;8.65;44.69
16255;BME280;8235;52.198;9.904;2023-04-06T08:29:43;101102.50;;;8.81;44.66
16255;BME280;8235;52.198;9.904;2023-04-06T08:32:11;101089.53;;;8.93;43.83
16255;BME280;8235;52.198;9.904;2023-04-06T08:34:37;101087.09;;;9.06;44.20
16255;BME280;8235;52.198;9.904;2023-04-06T08:37:04;101095.22;;;9.20;44.45
16255;BME280;8235;52.198;9.904;2023-04-06T08:39:31;101088.19;;;9.36;44.27
16255;BME280;8235;52.198;9.904;2023-04-06T08:41:59;101085.38;;;9.57;44.30
16255;BME280;8235;52.198;9.904;2023-04-06T08:44:28;101093.41;;;9.72;43.44
16255;BME280;8235;52.198;9.904;2023-04-06T08:46:55;101092.56;;;9.88;42.88
16255;BME280;8235;52.198;9.904;2023-04-06T08:49:23;101087.41;;;10.02;41.29
16255;BME280;8235;52.198;9.904;2023-04-06T08:51:49;101085.16;;;10.10;41.26
16255;BME280;8235;52.198;9.904;2023-04-06T08:54:17;101085.38;;;10.23;40.91
16255;BME280;8235;52.198;9.904;2023-04-06T08:56:43;101085.75;;;10.32;39.92
16255;BME280;8235;52.198;9.904;2023-04-06T08:59:10;101083.34;;;10.43;40.14
16255;BME280;8235;52.198;9.904;2023-04-06T09:01:40;101082.66;;;10.56;40.14
16255;BME280;8235;52.198;9.904;2023-04-06T09:04:10;101083.69;;;10.69;39.83
16255;BME280;8235;52.198;9.904;2023-04-06T09:06:39;101083.91;;;10.80;40.11
16255;BME280;8235;52.198;9.904;2023-04-06T09:09:06;101080.56;;;10.92;39.21
16255;BME280;8235;52.198;9.904;2023-04-06T09:11:44;101081.06;;;10.99;39.21
16255;BME280;8235;52.198;9.904;2023-04-06T09:14:10;101085.66;;;11.11;39.37
16255;BME280;8235;52.198;9.904;2023-04-06T09:16:41;101089.25;;;11.26;38.84
16255;BME280;8235;52.198;9.904;2023-04-06T09:19:08;101081.56;;;11.35;38.50
16255;BME280;8235;52.198;9.904;2023-04-06T09:21:35;101082.81;;;11.44;37.79
16255;BME280;8235;52.198;9.904;2023-04-06T09:24:04;101083.28;;;11.51;37.49
16255;BME280;8235;52.198;9.904;2023-04-06T09:26:31;101084.56;;;11.59;37.96
16255;BME280;8235;52.198;9.904;2023-04-06T09:28:59;101074.25;;;11.67;37.02
16255;BME280;8235;52.198;9.904;2023-04-06T09:31:27;101074.94;;;11.71;36.52
16255;BME280;8235;52.198;9.904;2023-04-06T09:33:55;101075.63;;;11.74;36.36
16255;BME280;8235;52.198;9.904;2023-04-06T09:36:29;101075.28;;;11.80;36.46
16255;BME280;8235;52.198;9.904;2023-04-06T09:38:58;101062.41;;;11.87;36.30
16255;BME280;8235;52.198;9.904;2023-04-06T09:41:28;101078.03;;;11.93;36.60
16255;BME280;8235;52.198;9.904;2023-04-06T09:44:02;101067.84;;;12.00;36.16
16255;BME280;8235;52.198;9.904;2023-04-06T09:46:32;101070.31;;;12.03;35.54
16255;BME280;8235;52.198;9.904;2023-04-06T09:49:00;101069.44;;;12.02;35.16
16255;BME280;8235;52.198;9.904;2023-04-06T09:51:30;101055.91;;;12.05;35.53
16255;BME280;8235;52.198;9.904;2023-04-06T09:53:57;101057.34;;;12.11;35.44
16255;BME280;8235;52.198;9.904;2023-04-06T09:56:28;101053.53;;;12.15;35.37
16255;BME280;8235;52.198;9.904;2023-04-06T09:59:04;101051.03;;;12.26;35.31
16255;BME280;8235;52.198;9.904;2023-04-06T10:01:33;101054.81;;;12.36;34.76
16255;BME280;8235;52.198;9.904;2023-04-06T10:04:09;101057.84;;;12.44;34.38
16255;BME280;8235;52.198;9.904;2023-04-06T10:06:39;101055.00;;;12.47;33.88
16255;BME280;8235;52.198;9.904;2023-04-06T10:09:07;101055.66;;;12.51;33.92
16255;BME280;8235;52.198;9.904;2023-04-06T10:11:35;101043.91;;;12.54;33.39
16255;BME280;8235;52.198;9.904;2023-04-06T10:14:02;101041.25;;;12.54;33.65
16255;BME280;8235;52.198;9.904;2023-04-06T10:16:30;101047.13;;;12.59;34.04
16255;BME280;8235;52.198;9.904;2023-04-06T10:19:00;101045.88;;;12.64;34.58
16255;BME280;8235;52.198;9.904;2023-04-06T10:21:29;101043.66;;;12.71;33.75
16255;BME280;8235;52.198;9.904;2023-04-06T10:23:59;101050.50;;;12.75;33.87
16255;BME280;8235;52.198;9.904;2023-04-06T10:26:25;101048.28;;;12.81;34.48
16255;BME280;8235;52.198;9.904;2023-04-06T10:28:54;101049.38;;;12.92;34.39
16255;BME280;8235;52.198;9.904;2023-04-06T10:31:24;101038.94;;;13.01;33.38
16255;BME280;8235;52.198;9.904;2023-04-06T10:33:55;101041.22;;;13.07;33.34
16255;BME280;8235;52.198;9.904;2023-04-06T10:36:24;101045.47;;;13.10;33.34
16255;BME280;8235;52.198;9.904;2023-04-06T10:38:54;101044.25;;;13.15;32.37
16255;BME280;8235;52.198;9.904;2023-04-06T10:41:21;101037.06;;;13.16;32.37
16255;BME280;8235;52.198;9.904;2023-04-06T10:43:56;101030.88;;;13.15;32.52
16255;BME280;8235;52.198;9.904;2023-04-06T10:46:24;101046.06;;;13.15;32.22
16255;BME280;8235;52.198;9.904;2023-04-06T10:48:51;101038.31;;;13.10;33.13
16255;BME280;8235;52.198;9.904;2023-04-06T10:51:18;101041.63;;;13.14;32.38
16255;BME280;8235;52.198;9.904;2023-04-06T10:53:46;101032.09;;;13.10;32.57
16255;BME280;8235;52.198;9.904;2023-04-06T10:56:15;101032.09;;;13.10;32.99
16255;BME280;8235;52.198;9.904;2023-04-06T10:58:45;101030.94;;;13.14;32.76
16255;BME280;8235;52.198;9.904;2023-04-06T11:01:14;101029.13;;;13.14;32.83
16255;BME280;8235;52.198;9.904;2023-04-06T11:03:44;101023.78;;;13.14;33.25
16255;BME280;8235;52.198;9.904;2023-04-06T11:06:17;101030.66;;;13.18;33.26
16255;BME280;8235;52.198;9.904;2023-04-06T11:08:44;101020.19;;;13.15;32.97
16255;BME280;8235;52.198;9.904;2023-04-06T11:11:12;101023.03;;;13.12;33.06
16255;BME280;8235;52.198;9.904;2023-04-06T11:13:41;101020.66;;;13.08;33.32
16255;BME280;8235;52.198;9.904;2023-04-06T11:16:17;101019.94;;;13.06;33.24
16255;BME280;8235;52.198;9.904;2023-04-06T11:18:48;101026.13;;;13.06;33.29
16255;BME280;8235;52.198;9.904;2023-04-06T11:21:15;101021.84;;;13.04;32.78
16255;BME280;8235;52.198;9.904;2023-04-06T11:23:41;101014.88;;;13.01;32.59
16255;BME280;8235;52.198;9.904;2023-04-06T11:26:10;101012.22;;;13.01;32.96
16255;BME280;8235;52.198;9.904;2023-04-06T11:28:37;101009.34;;;13.04;33.02
16255;BME280;8235;52.198;9.904;2023-04-06T11:31:04;101015.63;;;13.03;33.29
16255;BME280;8235;52.198;9.904;2023-04-06T11:33:36;101009.13;;;13.07;32.95
16255;BME280;8235;52.198;9.904;2023-04-06T11:36:04;101023.03;;;13.12;33.70
16255;BME280;8235;52.198;9.904;2023-04-06T11:38:31;101002.88;;;13.21;33.76
16255;BME280;8235;52.198;9.904;2023-04-06T11:40:57;101004.13;;;13.28;34.31
16255;BME280;8235;52.198;9.904;2023-04-06T11:43:29;101012.28;;;13.39;33.87
16255;BME280;8235;52.198;9.904;2023-04-06T11:46:00;101011.84;;;13.45;33.83
16255;BME280;8235;52.198;9.904;2023-04-06T11:48:27;101008.09;;;13.48;33.21
16255;BME280;8235;52.198;9.904;2023-04-06T11:50:59;101005.97;;;13.53;32.99
16255;BME280;8235;52.198;9.904;2023-04-06T11:53:27;100999.88;;;13.51;32.07
16255;BME280;8235;52.198;9.904;2023-04-06T11:55:54;100995.59;;;13.48;32.03
16255;BME280;8235;52.198;9.904;2023-04-06T11:58:21;100990.44;;;13.45;32.49
16255;BME280;8235;52.198;9.904;2023-04-06T12:00:48;100998.47;;;13.45;32.36
16255;BME280;8235;52.198;9.904;2023-04-06T12:03:14;100991.41;;;13.44;32.84
16255;BME280;8235;52.198;9.904;2023-04-06T12:05:41;100996.53;;;13.47;33.09
16255;BME280;8235;52.198;9.904;2023-04-06T12:08:09;100990.13;;;13.50;33.17
16255;BME280;8235;52.198;9.904;2023-04-06T12:10:35;100983.50;;;13.55;32.78
16255;BME280;8235;52.198;9.904;2023-04-06T12:13:03;100977.84;;;13.60;32.94
16255;BME280;8235;52.198;9.904;2023-04-06T12:15:30;100986.38;;;13.65;33.24
16255;BME280;8235;52.198;9.904;2023-04-06T12:17:56;100977.16;;;13.69;33.15
16255;BME280;8235;52.198;9.904;2023-04-06T12:20:23;100977.06;;;13.71;32.80
16255;BME280;8235;52.198;9.904;2023-04-06T12:22:50;100983.16;;;13.73;32.28
16255;BME280;8235;52.198;9.904;2023-04-06T12:25:18;100980.38;;;13.74;33.16
16255;BME280;8235;52.198;9.904;2023-04-06T12:27:44;100977.38;;;13.79;32.90
16255;BME280;8235;52.198;9.904;2023-04-06T12:30:12;100974.47;;;13.82;32.87
16255;BME280;8235;52.198;9.904;2023-04-06T12:32:38;100977.66;;;13.87;33.19
16255;BME280;8235;52.198;9.904;2023-04-06T12:35:05;100973.28;;;13.86;32.95
16255;BME280;8235;52.198;9.904;2023-04-06T12:37:36;100975.00;;;13.87;32.63
16255;BME280;8235;52.198;9.904;2023-04-06T12:40:03;100968.03;;;13.84;32.87
16255;BME280;8235;52.198;9.904;2023-04-06T12:42:31;100960.47;;;13.78;33.11
16255;BME280;8235;52.198;9.904;2023-04-06T12:44:58;100965.81;;;13.78;33.33
16255;BME280;8235;52.198;9.904;2023-04-06T12:47:25;100961.31;;;13.79;33.92
16255;BME280;8235;52.198;9.904;2023-04-06T12:49:53;100959.72;;;13.76;33.94
16255;BME280;8235;52.198;9.904;2023-04-06T12:52:20;100950.72;;;13.77;33.77
16255;BME280;8235;52.198;9.904;2023-04-06T12:54:47;100953.91;;;13.82;33.64
16255;BME280;8235;52.198;9.904;2023-04-06T12:57:13;100944.16;;;13.81;33.87
16255;BME280;8235;52.198;9.904;2023-04-06T12:59:44;100950.25;;;13.83;32.95
16255;BME280;8235;52.198;9.904;2023-04-06T13:02:11;100939.75;;;13.80;33.30
16255;BME280;8235;52.198;9.904;2023-04-06T13:04:38;100937.22;;;13.79;33.11